createdAt,value
2022-11-06T00:02:31.749Z,100936.25
2022-11-06T00:07:25.302Z,100907.34
2022-11-06T00:12:18.456Z,100936.66
2022-11-06T00:17:12.949Z,100931.66
2022-11-06T00:22:06.871Z,100921.63
2022-11-06T00:27:00.028Z,100860.72
2022-11-06T00:31:53.303Z,100930.09
2022-11-06T00:36:47.897Z,100924.97
2022-11-06T00:41:41.378Z,100896.41
2022-11-06T00:46:34.554Z,100921.44
2022-11-06T00:51:30.380Z,100802.78
2022-11-06T00:56:25.172Z,100911.19
2022-11-06T01:01:21.865Z,100928.72
2022-11-06T01:06:17.459Z,100901.44
2022-11-06T01:11:16.090Z,100893.72
2022-11-06T01:16:13.161Z,100820.69
2022-11-06T01:21:07.535Z,100725.78
2022-11-06T01:26:03.063Z,100924.00
2022-11-06T01:30:56.839Z,100919.50
2022-11-06T01:35:53.072Z,100928.25
2022-11-06T01:40:48.610Z,100878.53
2022-11-06T01:45:42.665Z,100935.28
2022-11-06T01:50:36.178Z,100921.53
2022-11-06T01:55:33.970Z,100863.13
2022-11-06T02:00:27.877Z,100901.91
2022-11-06T02:05:21.317Z,100949.59
2022-11-06T02:10:14.518Z,100890.91
2022-11-06T02:15:14.149Z,100943.16
2022-11-06T02:20:14.424Z,100919.59
2022-11-06T02:25:16.761Z,100937.22
2022-11-06T02:30:13.305Z,100865.38
2022-11-06T02:35:17.916Z,100942.84
2022-11-06T02:40:14.263Z,100933.78
2022-11-06T02:45:12.306Z,100960.63
2022-11-06T02:50:11.360Z,100967.19
2022-11-06T02:55:10.158Z,100845.00
2022-11-06T03:00:07.921Z,100971.66
2022-11-06T03:05:08.283Z,100946.44
2022-11-06T03:10:01.465Z,100983.47
2022-11-06T03:15:00.408Z,100955.38
2022-11-06T03:19:57.359Z,100986.59
2022-11-06T03:25:00.476Z,100950.06
2022-11-06T03:29:59.396Z,100969.91
2022-11-06T03:34:56.614Z,100994.47
2022-11-06T03:39:54.586Z,100996.66
2022-11-06T03:44:52.422Z,100962.13
2022-11-06T03:49:50.785Z,100995.09
2022-11-06T03:54:50.132Z,100945.72
2022-11-06T03:59:49.590Z,100909.63
2022-11-06T04:04:47.959Z,100961.97
2022-11-06T04:10:02.599Z,100998.63
2022-11-06T04:15:00.545Z,100994.97
2022-11-06T04:19:56.736Z,100896.69
2022-11-06T04:25:18.550Z,100959.69
2022-11-06T04:30:16.156Z,100974.59
2022-11-06T04:35:18.667Z,100876.56
2022-11-06T04:40:18.683Z,100998.63
2022-11-06T04:45:18.720Z,101002.06
2022-11-06T04:50:16.522Z,101000.31
2022-11-06T04:55:10.102Z,100912.34
2022-11-06T05:00:03.506Z,101009.50
2022-11-06T05:04:58.114Z,101009.84
2022-11-06T05:09:51.765Z,100981.13
2022-11-06T05:14:45.066Z,100963.72
2022-11-06T05:19:38.239Z,100942.00
2022-11-06T05:24:32.820Z,100919.59
2022-11-06T05:29:26.029Z,101009.44
2022-11-06T05:34:19.187Z,100958.53
2022-11-06T05:39:12.534Z,101047.16
2022-11-06T05:44:07.281Z,101038.16
2022-11-06T05:49:00.567Z,101037.97
2022-11-06T05:53:53.975Z,101069.19
2022-11-06T05:58:47.224Z,101037.31
2022-11-06T06:03:41.955Z,101093.53
2022-11-06T06:08:35.055Z,100998.28
2022-11-06T06:13:28.278Z,101102.19
2022-11-06T06:18:21.787Z,101059.56
2022-11-06T06:23:16.545Z,101054.25
2022-11-06T06:28:09.982Z,101121.13
2022-11-06T06:33:07.006Z,101051.34
2022-11-06T06:38:00.590Z,101129.44
2022-11-06T06:42:57.116Z,101110.16
2022-11-06T06:47:53.628Z,101020.53
2022-11-06T06:52:47.491Z,101141.31
2022-11-06T06:57:40.591Z,101148.03
2022-11-06T07:02:35.103Z,101009.75
2022-11-06T07:07:28.424Z,101121.63
2022-11-06T07:12:21.575Z,101106.28
2022-11-06T07:17:14.704Z,101148.13
2022-11-06T07:22:09.199Z,101148.69
2022-11-06T07:27:02.307Z,101159.09
2022-11-06T07:31:55.462Z,101158.72
2022-11-06T07:36:48.584Z,101132.28
2022-11-06T07:41:43.128Z,101169.09
2022-11-06T07:46:36.317Z,101143.19
2022-11-06T07:51:29.550Z,101169.13
2022-11-06T07:56:22.792Z,101107.16
2022-11-06T08:01:19.167Z,101142.84
2022-11-06T08:06:13.150Z,101173.66
2022-11-06T08:11:07.271Z,101117.84
2022-11-06T08:16:00.437Z,101166.25
2022-11-06T08:20:55.235Z,101174.50
2022-11-06T08:25:48.841Z,101175.53
2022-11-06T08:30:41.941Z,101159.44
2022-11-06T08:35:36.209Z,101162.13
2022-11-06T08:40:31.562Z,101140.38
2022-11-06T08:45:24.773Z,101171.34
2022-11-06T08:50:17.981Z,101162.00
2022-11-06T08:55:11.158Z,101166.22
2022-11-06T09:00:06.729Z,101189.38
2022-11-06T09:04:59.873Z,101187.72
2022-11-06T09:09:53.061Z,101187.16
2022-11-06T09:14:47.342Z,101168.84
2022-11-06T09:19:41.912Z,101163.47
2022-11-06T09:25:01.433Z,101163.72
2022-11-06T09:29:49.269Z,101160.25
2022-11-06T09:34:46.177Z,101185.03
2022-11-06T09:39:39.560Z,101170.44
2022-11-06T09:44:49.883Z,101177.94
2022-11-06T09:49:53.041Z,101068.53
2022-11-06T09:54:55.983Z,101127.28
2022-11-06T09:59:52.815Z,101156.94
2022-11-06T10:04:50.946Z,101094.31
2022-11-06T10:09:44.037Z,101135.94
2022-11-06T10:14:51.367Z,101150.56
2022-11-06T10:19:56.369Z,101127.94
2022-11-06T10:24:58.871Z,101115.75
2022-11-06T10:30:04.368Z,101135.50
2022-11-06T10:35:04.512Z,101131.31
2022-11-06T10:39:59.647Z,101083.94
2022-11-06T10:44:58.141Z,101101.81
2022-11-06T10:49:53.959Z,101116.25
2022-11-06T10:55:04.296Z,101082.31
2022-11-06T10:59:57.595Z,101070.88
2022-11-06T11:04:55.331Z,101049.00
2022-11-06T11:09:52.155Z,101097.19
2022-11-06T11:14:45.430Z,101092.22
2022-11-06T11:19:41.540Z,101062.25
2022-11-06T11:24:35.202Z,101074.00
2022-11-06T11:29:32.736Z,101084.44
2022-11-06T11:34:28.360Z,101081.44
2022-11-06T11:39:25.793Z,101046.47
2022-11-06T11:44:20.560Z,101052.72
2022-11-06T11:49:27.798Z,101052.53
2022-11-06T11:54:25.750Z,101074.72
2022-11-06T11:59:22.090Z,101076.03
2022-11-06T12:04:23.092Z,101061.81
2022-11-06T12:09:16.319Z,101079.34
2022-11-06T12:14:20.490Z,101068.41
2022-11-06T12:19:15.086Z,101076.53
2022-11-06T12:24:17.874Z,101027.84
2022-11-06T12:29:17.161Z,101057.00
2022-11-06T12:34:17.842Z,101054.53
2022-11-06T12:39:16.594Z,101071.94
2022-11-06T12:44:12.717Z,101083.56
2022-11-06T12:49:30.576Z,101065.84
2022-11-06T12:54:41.234Z,101086.53
2022-11-06T12:59:46.106Z,101057.59
2022-11-06T13:04:52.641Z,101022.81
2022-11-06T13:09:56.508Z,101012.88
2022-11-06T13:15:04.452Z,101096.88
2022-11-06T13:20:03.553Z,101099.38
2022-11-06T13:25:05.563Z,101031.41
2022-11-06T13:30:08.621Z,101103.66
2022-11-06T13:35:03.660Z,101107.66
2022-11-06T13:40:06.807Z,101109.47
2022-11-06T13:45:02.374Z,101111.31
2022-11-06T13:50:04.600Z,101063.03
2022-11-06T13:55:12.061Z,101117.41
2022-11-06T14:00:20.094Z,101118.53
2022-11-06T14:05:53.561Z,101069.81
2022-11-06T14:10:56.055Z,101083.03
2022-11-06T14:15:49.264Z,101125.28
2022-11-06T14:20:44.502Z,101134.19
2022-11-06T14:25:58.824Z,101137.16
2022-11-06T14:36:15.179Z,101137.38
2022-11-06T14:41:44.879Z,101142.78
2022-11-06T14:46:39.413Z,101088.28
2022-11-06T14:51:33.114Z,101144.13
2022-11-06T14:56:28.462Z,101143.13
2022-11-06T15:01:29.835Z,101026.56
2022-11-06T15:06:46.115Z,101083.38
2022-11-06T15:11:57.705Z,101093.72
2022-11-06T15:16:53.243Z,101160.84
2022-11-06T15:21:51.674Z,101142.75
2022-11-06T15:26:50.157Z,101133.13
2022-11-06T15:31:46.308Z,101180.63
2022-11-06T15:36:47.760Z,101185.16
2022-11-06T15:41:43.521Z,101188.38
2022-11-06T15:46:36.829Z,101169.78
2022-11-06T15:51:30.993Z,101157.00
2022-11-06T15:56:30.480Z,101206.38
2022-11-06T16:01:34.079Z,101158.59
2022-11-06T16:06:27.971Z,101178.91
2022-11-06T16:11:22.095Z,101247.03
2022-11-06T16:21:35.490Z,101168.59
2022-11-06T16:26:37.688Z,101110.50
2022-11-06T16:31:32.473Z,101196.88
2022-11-06T16:36:27.319Z,101291.69
2022-11-06T16:41:40.919Z,101294.16
2022-11-06T16:47:17.085Z,101254.97
2022-11-06T16:52:20.593Z,101308.19
2022-11-06T16:57:20.157Z,101258.69
2022-11-06T17:02:25.638Z,101272.59
2022-11-06T17:07:23.674Z,101290.91
2022-11-06T17:12:18.497Z,101301.16
2022-11-06T17:17:26.055Z,101332.31
2022-11-06T17:22:19.319Z,101335.31
2022-11-06T17:27:12.519Z,101348.78
2022-11-06T17:32:08.399Z,101360.28
2022-11-06T17:37:01.678Z,101334.03
2022-11-06T17:41:54.797Z,101322.06
2022-11-06T17:46:48.607Z,101329.53
2022-11-06T17:51:53.604Z,101371.91
2022-11-06T17:56:47.308Z,101369.09
2022-11-06T18:01:42.852Z,101381.06
2022-11-06T18:06:36.829Z,101377.25
2022-11-06T18:11:34.566Z,101382.00
2022-11-06T18:16:30.252Z,101380.91
2022-11-06T18:21:24.169Z,101366.03
2022-11-06T18:26:18.078Z,101379.66
2022-11-06T18:31:12.834Z,101395.06
2022-11-06T18:36:08.973Z,101289.97
2022-11-06T18:41:09.059Z,101372.38
2022-11-06T18:46:04.512Z,101398.25
2022-11-06T18:50:59.166Z,101401.56
2022-11-06T18:55:55.685Z,101345.53
2022-11-06T19:00:49.037Z,101390.81
2022-11-06T19:05:53.781Z,101409.19
2022-11-06T19:10:48.463Z,101384.97
2022-11-06T19:15:46.247Z,101401.66
2022-11-06T19:20:41.201Z,101364.13
2022-11-06T19:25:34.521Z,101408.88
2022-11-06T19:30:29.081Z,101418.28
2022-11-06T19:35:22.467Z,101444.78
2022-11-06T19:40:15.700Z,101445.59
2022-11-06T19:45:09.728Z,101453.13
2022-11-06T19:50:08.437Z,101455.16
2022-11-06T19:55:25.836Z,101373.19
2022-11-06T20:00:17.061Z,101471.63
2022-11-06T20:05:13.740Z,101440.56
2022-11-06T20:10:07.491Z,101368.59
2022-11-06T20:15:00.823Z,101437.72
2022-11-06T20:19:54.021Z,101425.00
2022-11-06T20:24:50.481Z,101483.69
2022-11-06T20:29:48.593Z,101433.13
2022-11-06T20:34:45.178Z,101499.19
2022-11-06T20:39:38.349Z,101483.72
2022-11-06T20:44:35.037Z,101497.34
2022-11-06T20:49:28.601Z,101503.81
2022-11-06T20:54:22.104Z,101389.97
2022-11-06T20:59:16.295Z,101399.53
2022-11-06T21:04:12.629Z,101491.53
2022-11-06T21:09:06.267Z,101518.91
2022-11-06T21:14:00.393Z,101499.81
2022-11-06T21:18:54.538Z,101495.41
2022-11-06T21:23:49.597Z,101474.19
2022-11-06T21:28:46.366Z,101409.66
2022-11-06T21:33:41.744Z,101489.28
2022-11-06T21:38:35.135Z,101448.78
2022-11-06T21:43:33.259Z,101522.22
2022-11-06T21:48:45.329Z,101486.41
2022-11-06T21:53:58.303Z,101460.06
2022-11-06T21:58:54.191Z,101524.66
2022-11-06T22:03:47.668Z,101452.28
2022-11-06T22:08:42.854Z,101533.38
2022-11-06T22:13:36.277Z,101523.50
2022-11-06T22:18:31.121Z,101532.69
2022-11-06T22:23:24.454Z,101534.09
2022-11-06T22:28:17.640Z,101533.03
2022-11-06T22:33:11.107Z,101518.81
2022-11-06T22:38:08.481Z,101553.59
2022-11-06T22:43:01.656Z,101550.97
2022-11-06T22:47:57.342Z,101429.22
2022-11-06T22:52:51.741Z,101450.72
2022-11-06T22:57:46.320Z,101531.47
2022-11-06T23:02:39.561Z,101551.69
2022-11-06T23:07:35.796Z,101551.09
2022-11-06T23:12:33.058Z,101564.94
2022-11-06T23:17:28.095Z,101576.53
2022-11-06T23:22:39.621Z,101548.16
2022-11-06T23:27:33.183Z,101594.81
2022-11-06T23:32:28.061Z,101569.53
2022-11-06T23:37:22.210Z,101590.69
2022-11-06T23:42:15.793Z,101547.53
2022-11-06T23:47:08.995Z,101614.81
2022-11-06T23:52:03.616Z,101620.41
2022-11-06T23:56:56.934Z,101619.72
